createdAt,value
2022-10-13T00:02:32.392Z,72.97
2022-10-13T00:12:37.340Z,73.93
2022-10-13T00:22:42.286Z,76.55
2022-10-13T00:32:46.558Z,76.63
2022-10-13T00:42:49.519Z,77.16
2022-10-13T00:52:55.440Z,77.26
2022-10-13T01:02:59.831Z,76.56
2022-10-13T01:13:14.487Z,77.06
2022-10-13T01:23:37.183Z,77.05
2022-10-13T01:33:45.422Z,77.66
2022-10-13T01:43:53.196Z,77.61
2022-10-13T01:53:57.479Z,77.50
2022-10-13T02:04:13.705Z,77.62
2022-10-13T02:14:24.290Z,76.99
2022-10-13T02:24:27.447Z,77.68
2022-10-13T02:34:31.834Z,78.22
2022-10-13T02:44:34.699Z,77.59
2022-10-13T02:54:38.654Z,77.88
2022-10-13T03:04:41.734Z,78.33
2022-10-13T03:14:46.015Z,78.50
2022-10-13T03:24:48.934Z,78.43
2022-10-13T03:34:53.289Z,79.55
2022-10-13T03:44:56.772Z,79.41
2022-10-13T03:55:00.953Z,78.93
2022-10-13T04:05:03.920Z,78.92
2022-10-13T04:15:09.801Z,79.09
2022-10-13T04:25:12.976Z,78.72
2022-10-13T04:35:17.469Z,78.66
2022-10-13T04:45:20.303Z,78.24
2022-10-13T04:55:26.786Z,78.21
2022-10-13T05:05:29.814Z,78.78
2022-10-13T05:15:34.808Z,79.12
2022-10-13T05:25:38.688Z,79.23
2022-10-13T05:35:42.801Z,79.30
2022-10-13T05:45:45.654Z,80.12
2022-10-13T05:55:50.619Z,79.65
2022-10-13T06:05:53.755Z,79.58
2022-10-13T06:15:57.978Z,80.26
2022-10-13T06:26:00.963Z,80.92
2022-10-13T06:36:07.150Z,80.68
2022-10-13T06:46:10.318Z,80.98
2022-10-13T06:56:14.738Z,81.14
2022-10-13T07:06:18.811Z,81.72
2022-10-13T07:16:23.185Z,81.45
2022-10-13T07:26:26.449Z,81.19
2022-10-13T07:36:30.763Z,81.49
2022-10-13T07:46:34.127Z,81.72
2022-10-13T07:56:38.477Z,81.63
2022-10-13T08:06:43.249Z,82.06
2022-10-13T08:16:51.329Z,82.87
2022-10-13T08:26:56.555Z,82.34
2022-10-13T08:37:00.859Z,81.13
2022-10-13T08:47:10.651Z,80.47
2022-10-13T08:57:14.930Z,79.82
2022-10-13T09:07:22.626Z,79.86
2022-10-13T09:17:28.690Z,79.37
2022-10-13T09:27:43.619Z,78.97
2022-10-13T09:38:02.674Z,78.98
2022-10-13T09:48:08.670Z,78.16
2022-10-13T09:58:17.077Z,77.30
2022-10-13T10:08:33.190Z,77.45
2022-10-13T10:18:43.907Z,76.57
2022-10-13T10:28:57.522Z,75.94
2022-10-13T10:39:07.953Z,74.43
2022-10-13T10:49:19.003Z,74.03
2022-10-13T10:59:40.875Z,72.16
2022-10-13T11:10:05.965Z,70.79
2022-10-13T11:20:42.544Z,70.11
2022-10-13T11:30:50.746Z,69.88
2022-10-13T11:41:07.422Z,68.51
2022-10-13T11:51:23.789Z,68.23
2022-10-13T12:01:26.635Z,68.56
2022-10-13T12:11:33.219Z,71.81
2022-10-13T12:21:50.287Z,71.88
2022-10-13T12:31:55.469Z,72.52
2022-10-13T12:42:00.587Z,74.08
2022-10-13T12:52:14.529Z,75.02
2022-10-13T13:02:22.895Z,76.35
2022-10-13T13:12:30.067Z,79.15
2022-10-13T13:22:34.704Z,80.61
2022-10-13T13:32:39.096Z,82.69
2022-10-13T13:42:42.339Z,83.29
2022-10-13T13:52:46.695Z,84.09
2022-10-13T14:02:50.504Z,83.60
2022-10-13T14:12:55.010Z,84.44
2022-10-13T14:22:57.877Z,84.41
2022-10-13T14:33:05.051Z,84.94
2022-10-13T14:43:08.006Z,85.19
2022-10-13T14:53:15.549Z,84.86
2022-10-13T15:03:18.420Z,84.61
2022-10-13T15:13:23.359Z,84.58
2022-10-13T15:23:26.750Z,84.92
2022-10-13T15:33:32.111Z,84.97
2022-10-13T15:43:35.752Z,85.42
2022-10-13T15:53:39.956Z,85.84
2022-10-13T16:03:43.560Z,85.36
2022-10-13T16:13:49.046Z,85.78
2022-10-13T16:23:51.803Z,85.35
2022-10-13T16:33:56.187Z,85.23
2022-10-13T16:43:59.092Z,85.82
2022-10-13T16:54:04.586Z,85.89
2022-10-13T17:04:07.740Z,86.28
2022-10-13T17:14:12.165Z,85.89
2022-10-13T17:24:15.750Z,86.13
2022-10-13T17:34:19.967Z,86.15
2022-10-13T17:44:24.370Z,85.81
2022-10-13T17:54:28.566Z,85.04
2022-10-13T18:04:31.230Z,84.64
2022-10-13T18:14:35.529Z,83.98
2022-10-13T18:24:38.763Z,83.15
2022-10-13T18:34:43.137Z,81.39
2022-10-13T18:44:46.095Z,80.03
2022-10-13T18:54:50.908Z,79.33
2022-10-13T19:04:54.200Z,77.95
2022-10-13T19:14:58.875Z,76.36
2022-10-13T19:25:01.814Z,75.57
2022-10-13T19:35:06.575Z,75.16
2022-10-13T19:45:10.270Z,74.30
2022-10-13T19:55:14.475Z,74.76
2022-10-13T20:05:19.926Z,74.41
2022-10-13T20:15:27.709Z,74.52
2022-10-13T20:25:37.795Z,74.89
2022-10-13T20:35:42.019Z,75.00
2022-10-13T20:45:44.666Z,75.32
2022-10-13T20:55:57.476Z,75.56
2022-10-13T21:06:03.686Z,75.55
2022-10-13T21:16:09.679Z,75.81
2022-10-13T21:26:16.290Z,76.40
2022-10-13T21:36:25.104Z,76.65
2022-10-13T21:46:29.786Z,76.77
2022-10-13T21:56:35.029Z,77.03
2022-10-13T22:06:38.738Z,77.27
2022-10-13T22:16:45.270Z,77.52
2022-10-13T22:26:49.973Z,77.95
2022-10-13T22:36:54.829Z,79.72
2022-10-13T22:46:57.978Z,80.72
2022-10-13T22:57:02.159Z,81.57
2022-10-13T23:07:05.153Z,82.26
2022-10-13T23:17:09.467Z,82.72
2022-10-13T23:27:12.386Z,82.96
2022-10-13T23:37:16.641Z,83.28
2022-10-13T23:47:19.865Z,83.90
2022-10-13T23:57:24.316Z,84.51
